createdAt,value
2018-09-13T00:00:48.961Z,100941.14
2018-09-13T00:01:55.207Z,100943.54
2018-09-13T00:03:01.430Z,100943.64
2018-09-13T00:04:07.665Z,100947.81
2018-09-13T00:05:14.820Z,100946.77
2018-09-13T00:06:22.031Z,100945.87
2018-09-13T00:07:27.965Z,100943.43
2018-09-13T00:08:34.196Z,100943.98
2018-09-13T00:09:40.449Z,100941.09
2018-09-13T00:10:46.049Z,100944.94
2018-09-13T00:11:52.293Z,100943.67
2018-09-13T00:12:58.534Z,100949.64
2018-09-13T00:14:04.865Z,100947.41
2018-09-13T00:15:11.184Z,100946.09
2018-09-13T00:16:17.458Z,100948.02
2018-09-13T00:17:23.709Z,100954.26
2018-09-13T00:18:29.995Z,100949.61
2018-09-13T00:19:36.290Z,100948.66
2018-09-13T00:20:42.574Z,100952.95
2018-09-13T00:21:48.830Z,100948.92
2018-09-13T00:22:55.057Z,100939.57
2018-09-13T00:24:01.362Z,100944.36
2018-09-13T00:25:07.636Z,100941.06
2018-09-13T00:26:13.859Z,100934.33
2018-09-13T00:27:20.125Z,100933.33
2018-09-13T00:28:26.379Z,100932.66
2018-09-13T00:29:32.643Z,100938.75
2018-09-13T00:30:38.931Z,100938.81
2018-09-13T00:31:45.178Z,100941.40
2018-09-13T00:32:51.459Z,100943.38
2018-09-13T00:33:57.736Z,100941.38
2018-09-13T00:35:03.963Z,100939.70
2018-09-13T00:36:10.222Z,100935.27
2018-09-13T00:37:16.204Z,100936.25
2018-09-13T00:38:22.423Z,100934.03
2018-09-13T00:39:28.676Z,100934.61
2018-09-13T00:40:34.948Z,100935.09
2018-09-13T00:41:41.167Z,100938.34
2018-09-13T00:42:47.432Z,100937.91
2018-09-13T00:43:53.432Z,100934.04
2018-09-13T00:44:59.394Z,100927.74
2018-09-13T00:46:05.656Z,100931.69
2018-09-13T00:47:11.872Z,100927.20
2018-09-13T00:48:18.121Z,100924.03
2018-09-13T00:49:24.366Z,100923.84
2018-09-13T00:50:30.251Z,100922.92
2018-09-13T00:51:36.522Z,100917.91
2018-09-13T00:52:42.774Z,100930.39
2018-09-13T00:53:49.029Z,100925.80
2018-09-13T00:54:55.316Z,100927.55
2018-09-13T00:56:01.524Z,100930.23
2018-09-13T00:57:07.778Z,100930.31
2018-09-13T00:58:14.045Z,100932.61
2018-09-13T00:59:20.302Z,100927.75
2018-09-13T01:00:26.601Z,100926.58
2018-09-13T01:01:31.852Z,100926.67
2018-09-13T01:02:37.741Z,100923.74
2018-09-13T01:03:43.961Z,100919.23
2018-09-13T01:04:50.230Z,100918.23
2018-09-13T01:05:56.220Z,100913.98
2018-09-13T01:07:02.461Z,100914.05
2018-09-13T01:08:08.713Z,100915.55
2018-09-13T01:09:14.936Z,100916.34
2018-09-13T01:10:21.261Z,100908.76
2018-09-13T01:11:27.495Z,100908.30
2018-09-13T01:12:33.747Z,100903.86
2018-09-13T01:13:40.005Z,100904.14
2018-09-13T01:14:45.971Z,100903.11
2018-09-13T01:15:52.202Z,100907.41
2018-09-13T01:16:58.442Z,100910.27
2018-09-13T01:18:04.675Z,100906.00
2018-09-13T01:19:10.925Z,100907.90
2018-09-13T01:20:17.197Z,100912.73
2018-09-13T01:21:23.201Z,100912.02
2018-09-13T01:22:29.664Z,100910.55
2018-09-13T01:23:35.617Z,100910.91
2018-09-13T01:24:41.874Z,100910.23
2018-09-13T01:25:47.876Z,100903.50
2018-09-13T01:26:54.137Z,100902.39
2018-09-13T01:28:00.811Z,100895.78
2018-09-13T01:29:06.531Z,100892.84
2018-09-13T01:30:12.455Z,100893.09
2018-09-13T01:31:18.456Z,100889.05
2018-09-13T01:32:24.669Z,100893.06
2018-09-13T01:33:30.936Z,100893.17
2018-09-13T01:34:37.235Z,100893.17
2018-09-13T01:35:43.509Z,100898.89
2018-09-13T01:36:49.781Z,100895.74
2018-09-13T01:37:55.729Z,100898.50
2018-09-13T01:39:01.982Z,100891.88
2018-09-13T01:40:07.594Z,100897.53
2018-09-13T01:41:13.883Z,100897.67
2018-09-13T01:42:20.129Z,100891.77
2018-09-13T01:43:26.367Z,100897.06
2018-09-13T01:44:31.649Z,100898.67
2018-09-13T01:45:37.952Z,100897.10
2018-09-13T01:46:44.214Z,100896.28
2018-09-13T01:47:50.434Z,100898.72
2018-09-13T01:48:56.683Z,100901.18
2018-09-13T01:50:02.957Z,100897.71
2018-09-13T01:51:09.202Z,100900.72
2018-09-13T01:52:15.470Z,100899.50
2018-09-13T01:53:21.778Z,100905.16
2018-09-13T01:54:28.021Z,100900.86
2018-09-13T01:55:34.505Z,100907.58
2018-09-13T01:56:40.923Z,100908.58
2018-09-13T01:57:47.225Z,100900.14
2018-09-13T01:58:53.469Z,100903.00
2018-09-13T01:59:59.716Z,100905.65
2018-09-13T02:01:05.296Z,100904.30
2018-09-13T02:02:11.512Z,100903.29
2018-09-13T02:03:17.794Z,100905.16
2018-09-13T02:04:24.026Z,100907.12
2018-09-13T02:05:30.310Z,100904.05
2018-09-13T02:06:36.586Z,100901.97
2018-09-13T02:07:42.847Z,100900.56
2018-09-13T02:08:48.836Z,100901.22
2018-09-13T02:09:55.281Z,100894.45
2018-09-13T02:11:01.532Z,100895.42
2018-09-13T02:12:07.429Z,100893.45
2018-09-13T02:13:13.665Z,100889.20
2018-09-13T02:14:19.980Z,100885.69
2018-09-13T02:15:26.180Z,100885.88
2018-09-13T02:16:32.496Z,100880.83
2018-09-13T02:17:38.745Z,100886.45
2018-09-13T02:18:44.960Z,100886.16
2018-09-13T02:19:50.897Z,100889.77
2018-09-13T02:20:57.123Z,100879.25
2018-09-13T02:22:03.389Z,100888.34
2018-09-13T02:23:09.624Z,100880.62
2018-09-13T02:24:15.867Z,100888.95
2018-09-13T02:25:21.824Z,100887.30
2018-09-13T02:26:28.110Z,100890.52
2018-09-13T02:27:34.362Z,100892.88
2018-09-13T02:28:40.394Z,100890.09
2018-09-13T02:29:46.648Z,100893.17
2018-09-13T02:30:52.919Z,100891.20
2018-09-13T02:31:59.204Z,100897.17
2018-09-13T02:33:05.067Z,100895.03
2018-09-13T02:34:11.288Z,100888.73
2018-09-13T02:35:17.296Z,100891.20
2018-09-13T02:36:23.580Z,100889.45
2018-09-13T02:37:29.881Z,100884.73
2018-09-13T02:38:36.125Z,100882.58
2018-09-13T02:39:42.373Z,100882.77
2018-09-13T02:40:48.383Z,100881.23
2018-09-13T02:41:58.219Z,100881.66
2018-09-13T02:43:04.127Z,100878.62
2018-09-13T02:44:09.842Z,100888.91
2018-09-13T02:45:16.109Z,100887.98
2018-09-13T02:46:22.425Z,100883.16
2018-09-13T02:47:28.734Z,100881.41
2018-09-13T02:48:34.971Z,100883.77
2018-09-13T02:49:41.236Z,100883.16
2018-09-13T02:50:47.462Z,100885.52
2018-09-13T02:51:53.918Z,100884.84
2018-09-13T02:52:59.963Z,100882.41
2018-09-13T02:54:05.823Z,100883.05
2018-09-13T02:55:12.090Z,100877.19
2018-09-13T02:56:19.028Z,100877.65
2018-09-13T02:57:25.014Z,100879.22
2018-09-13T02:58:31.226Z,100881.69
2018-09-13T02:59:37.495Z,100877.25
2018-09-13T03:00:44.094Z,100876.83
2018-09-13T03:01:51.292Z,100883.52
2018-09-13T03:02:58.531Z,100879.40
2018-09-13T03:04:05.315Z,100876.90
2018-09-13T03:05:12.642Z,100873.36
2018-09-13T03:06:19.461Z,100869.75
2018-09-13T03:07:27.284Z,100867.14
2018-09-13T03:08:35.299Z,100867.63
2018-09-13T03:09:43.100Z,100866.67
2018-09-13T03:10:50.467Z,100863.45
2018-09-13T03:11:58.880Z,100866.42
2018-09-13T03:13:07.190Z,100864.59
2018-09-13T03:14:14.621Z,100867.78
2018-09-13T03:15:22.978Z,100863.31
2018-09-13T03:16:31.230Z,100860.70
2018-09-13T03:17:38.681Z,100864.53
2018-09-13T03:18:46.098Z,100858.98
2018-09-13T03:19:53.228Z,100860.98
2018-09-13T03:21:00.656Z,100854.55
2018-09-13T03:22:08.402Z,100858.30
2018-09-13T03:23:16.155Z,100858.70
2018-09-13T03:24:23.602Z,100856.77
2018-09-13T03:25:31.239Z,100854.91
2018-09-13T03:26:38.170Z,100869.56
2018-09-13T03:27:45.053Z,100858.69
2018-09-13T03:28:52.690Z,100861.95
2018-09-13T03:30:00.171Z,100861.84
2018-09-13T03:31:08.076Z,100853.19
2018-09-13T03:32:15.856Z,100845.57
2018-09-13T03:33:24.030Z,100843.97
2018-09-13T03:34:30.627Z,100844.75
2018-09-13T03:35:38.132Z,100843.36
2018-09-13T03:36:45.558Z,100844.17
2018-09-13T03:37:54.543Z,100842.53
2018-09-13T03:39:02.548Z,100847.24
2018-09-13T03:40:09.732Z,100846.56
2018-09-13T03:41:18.956Z,100852.69
2018-09-13T03:42:26.205Z,100847.08
2018-09-13T03:43:33.065Z,100851.58
2018-09-13T03:44:40.164Z,100852.72
2018-09-13T03:45:47.475Z,100854.41
2018-09-13T03:46:54.910Z,100848.58
2018-09-13T03:48:02.416Z,100852.83
2018-09-13T03:49:09.735Z,100849.94
2018-09-13T03:50:16.607Z,100851.36
2018-09-13T03:51:23.952Z,100846.72
2018-09-13T03:52:31.117Z,100841.11
2018-09-13T03:53:38.253Z,100839.25
2018-09-13T03:54:45.549Z,100843.25
2018-09-13T03:55:52.917Z,100834.56
2018-09-13T03:56:59.826Z,100830.02
2018-09-13T03:58:08.161Z,100827.70
2018-09-13T03:59:15.449Z,100828.73
2018-09-13T04:00:23.117Z,100825.45
2018-09-13T04:01:30.306Z,100829.13
2018-09-13T04:02:37.506Z,100837.06
2018-09-13T04:03:44.762Z,100831.48
2018-09-13T04:04:53.488Z,100829.84
2018-09-13T04:06:01.016Z,100833.49
2018-09-13T04:07:08.173Z,100838.67
2018-09-13T04:08:15.378Z,100842.61
2018-09-13T04:09:23.113Z,100843.93
2018-09-13T04:10:29.645Z,100846.79
2018-09-13T04:11:35.913Z,100846.50
2018-09-13T04:12:42.301Z,100846.25
2018-09-13T04:13:48.383Z,100844.83
2018-09-13T04:14:54.684Z,100848.76
2018-09-13T04:16:01.241Z,100855.66
2018-09-13T04:17:08.588Z,100850.08
2018-09-13T04:18:14.848Z,100850.01
2018-09-13T04:19:20.856Z,100848.33
2018-09-13T04:20:27.122Z,100848.72
2018-09-13T04:21:33.349Z,100844.68
2018-09-13T04:22:39.601Z,100844.24
2018-09-13T04:23:46.153Z,100847.14
2018-09-13T04:24:52.400Z,100846.47
2018-09-13T04:25:58.641Z,100840.75
2018-09-13T04:27:04.868Z,100841.60
2018-09-13T04:28:11.142Z,100842.92
2018-09-13T04:29:17.158Z,100838.92
2018-09-13T04:30:23.446Z,100841.13
2018-09-13T04:31:29.752Z,100841.60
2018-09-13T04:32:35.987Z,100834.92
2018-09-13T04:33:42.269Z,100833.80
2018-09-13T04:34:48.486Z,100837.88
2018-09-13T04:35:54.862Z,100830.48
2018-09-13T04:37:01.274Z,100826.66
2018-09-13T04:38:07.561Z,100829.16
2018-09-13T04:39:13.823Z,100826.23
2018-09-13T04:40:20.155Z,100826.48
2018-09-13T04:41:26.665Z,100830.84
2018-09-13T04:42:32.641Z,100828.91
2018-09-13T04:43:38.686Z,100832.99
2018-09-13T04:44:44.934Z,100827.66
2018-09-13T04:45:50.951Z,100833.42
2018-09-13T04:46:57.168Z,100833.89
2018-09-13T04:48:03.561Z,100840.03
2018-09-13T04:49:09.873Z,100836.50
2018-09-13T04:50:16.339Z,100841.36
2018-09-13T04:51:22.613Z,100834.95
2018-09-13T04:52:28.615Z,100841.36
2018-09-13T04:53:34.898Z,100840.89
2018-09-13T04:54:41.148Z,100841.72
2018-09-13T04:55:47.161Z,100838.45
2018-09-13T04:56:53.436Z,100850.05
2018-09-13T04:57:59.695Z,100848.33
2018-09-13T04:59:05.040Z,100843.00
2018-09-13T05:00:11.304Z,100844.58
2018-09-13T05:01:17.426Z,100839.03
2018-09-13T05:02:23.665Z,100841.78
2018-09-13T05:03:29.981Z,100839.93
2018-09-13T05:04:36.221Z,100843.54
2018-09-13T05:05:42.532Z,100851.83
2018-09-13T05:06:48.782Z,100845.00
2018-09-13T05:07:55.141Z,100849.91
2018-09-13T05:09:01.432Z,100847.41
2018-09-13T05:10:07.414Z,100849.80
2018-09-13T05:11:13.687Z,100853.59
2018-09-13T05:12:19.941Z,100850.44
2018-09-13T05:13:26.685Z,100848.65
2018-09-13T05:14:33.164Z,100844.94
2018-09-13T05:15:39.389Z,100845.44
2018-09-13T05:16:45.644Z,100851.51
2018-09-13T05:17:52.041Z,100846.72
2018-09-13T05:18:58.504Z,100847.97
2018-09-13T05:20:04.506Z,100848.22
2018-09-13T05:21:10.801Z,100846.79
2018-09-13T05:22:17.103Z,100843.75
2018-09-13T05:23:23.302Z,100843.97
2018-09-13T05:24:29.622Z,100848.97
2018-09-13T05:25:35.802Z,100842.72
2018-09-13T05:26:42.037Z,100849.33
2018-09-13T05:27:48.256Z,100846.65
2018-09-13T05:28:54.548Z,100855.94
2018-09-13T05:30:00.799Z,100842.21
2018-09-13T05:31:06.870Z,100849.55
2018-09-13T05:32:13.127Z,100853.12
2018-09-13T05:33:19.352Z,100847.64
2018-09-13T05:34:25.630Z,100848.33
2018-09-13T05:35:31.874Z,100843.46
2018-09-13T05:36:38.100Z,100847.89
2018-09-13T05:37:44.110Z,100845.28
2018-09-13T05:38:50.391Z,100838.14
2018-09-13T05:39:56.854Z,100838.89
2018-09-13T05:41:03.112Z,100845.54
2018-09-13T05:42:09.004Z,100844.57
2018-09-13T05:43:14.984Z,100839.96
2018-09-13T05:44:21.254Z,100840.89
2018-09-13T05:45:28.155Z,100840.35
2018-09-13T05:46:34.409Z,100838.17
2018-09-13T05:47:40.650Z,100843.03
2018-09-13T05:48:46.901Z,100840.71
2018-09-13T05:49:53.187Z,100845.47
2018-09-13T05:50:59.456Z,100843.46
2018-09-13T05:52:05.702Z,100843.89
2018-09-13T05:53:11.951Z,100847.29
2018-09-13T05:54:18.270Z,100842.39
2018-09-13T05:55:24.512Z,100847.04
2018-09-13T05:56:30.738Z,100837.31
2018-09-13T05:57:36.987Z,100840.67
2018-09-13T05:58:43.234Z,100836.42
2018-09-13T05:59:49.559Z,100833.59
2018-09-13T06:01:00.871Z,100844.86
2018-09-13T06:02:07.200Z,100837.28
2018-09-13T06:03:13.427Z,100840.07
2018-09-13T06:04:19.697Z,100840.25
2018-09-13T06:05:25.934Z,100843.72
2018-09-13T06:06:32.191Z,100843.14
2018-09-13T06:07:38.422Z,100841.89
2018-09-13T06:08:44.705Z,100845.15
2018-09-13T06:09:50.765Z,100839.82
2018-09-13T06:10:57.037Z,100844.22
2018-09-13T06:12:03.325Z,100844.18
2018-09-13T06:13:09.784Z,100843.39
2018-09-13T06:14:16.180Z,100847.04
2018-09-13T06:15:22.409Z,100843.03
2018-09-13T06:16:28.402Z,100847.69
2018-09-13T06:17:34.632Z,100851.94
2018-09-13T06:18:40.868Z,100854.55
2018-09-13T06:19:47.191Z,100855.52
2018-09-13T06:20:53.633Z,100853.19
2018-09-13T06:21:59.876Z,100849.97
2018-09-13T06:23:06.100Z,100853.69
2018-09-13T06:24:12.303Z,100854.77
2018-09-13T06:25:18.556Z,100851.65
2018-09-13T06:26:24.803Z,100855.52
2018-09-13T06:27:31.040Z,100852.41
2018-09-13T06:28:37.243Z,100851.16
2018-09-13T06:29:43.505Z,100853.77
2018-09-13T06:30:49.771Z,100855.05
2018-09-13T06:31:56.264Z,100857.44
2018-09-13T06:33:02.535Z,100858.66
2018-09-13T06:34:08.793Z,100856.84
2018-09-13T06:35:15.058Z,100852.76
2018-09-13T06:36:21.317Z,100853.69
2018-09-13T06:37:27.785Z,100855.73
2018-09-13T06:38:34.002Z,100853.26
2018-09-13T06:39:40.383Z,100853.36
2018-09-13T06:40:46.624Z,100848.80
2018-09-13T06:41:52.898Z,100850.58
2018-09-13T06:42:59.150Z,100857.63
2018-09-13T06:44:05.381Z,100857.30
2018-09-13T06:45:11.649Z,100859.84
2018-09-13T06:46:17.912Z,100860.55
2018-09-13T06:47:24.184Z,100851.98
2018-09-13T06:48:30.479Z,100851.16
2018-09-13T06:49:36.879Z,100849.00
2018-09-13T06:50:43.156Z,100845.08
2018-09-13T06:51:49.416Z,100847.94
2018-09-13T06:52:55.657Z,100844.75
2018-09-13T06:54:01.932Z,100845.22
2018-09-13T06:55:07.718Z,100845.22
2018-09-13T06:56:14.013Z,100839.46
2018-09-13T06:57:20.238Z,100845.86
2018-09-13T06:58:26.465Z,100846.64
2018-09-13T06:59:32.663Z,100847.31
2018-09-13T07:00:38.698Z,100839.95
2018-09-13T07:01:44.983Z,100839.63
2018-09-13T07:02:51.245Z,100848.54
2018-09-13T07:03:57.487Z,100839.70
2018-09-13T07:05:03.445Z,100848.75
2018-09-13T07:06:09.671Z,100839.70
2018-09-13T07:07:15.730Z,100842.25
2018-09-13T07:08:22.155Z,100848.47
2018-09-13T07:09:28.153Z,100853.61
2018-09-13T07:10:33.892Z,100845.95
2018-09-13T07:11:40.115Z,100846.38
2018-09-13T07:12:46.384Z,100841.34
2018-09-13T07:13:52.385Z,100843.16
2018-09-13T07:14:58.723Z,100842.12
2018-09-13T07:16:04.991Z,100836.94
2018-09-13T07:17:11.195Z,100837.83
2018-09-13T07:18:17.425Z,100830.14
2018-09-13T07:19:23.645Z,100829.38
2018-09-13T07:20:29.933Z,100827.23
2018-09-13T07:21:36.233Z,100828.30
2018-09-13T07:22:42.123Z,100830.30
2018-09-13T07:23:48.125Z,100829.53
2018-09-13T07:24:54.092Z,100833.04
2018-09-13T07:26:00.385Z,100831.38
2018-09-13T07:27:05.922Z,100831.75
2018-09-13T07:28:12.214Z,100826.06
2018-09-13T07:29:18.473Z,100827.31
2018-09-13T07:30:24.819Z,100827.43
2018-09-13T07:31:31.098Z,100829.14
2018-09-13T07:32:37.386Z,100826.70
2018-09-13T07:33:43.606Z,100825.34
2018-09-13T07:34:49.822Z,100822.77
2018-09-13T07:35:56.088Z,100824.74
2018-09-13T07:37:02.326Z,100820.94
2018-09-13T07:38:08.556Z,100822.09
2018-09-13T07:39:14.607Z,100827.07
2018-09-13T07:40:20.832Z,100824.23
2018-09-13T07:41:27.090Z,100824.56
2018-09-13T07:42:33.425Z,100822.94
2018-09-13T07:43:39.818Z,100820.44
2018-09-13T07:44:45.811Z,100820.03
2018-09-13T07:45:52.076Z,100816.64
2018-09-13T07:46:58.074Z,100814.47
2018-09-13T07:48:04.330Z,100809.36
2018-09-13T07:49:10.591Z,100807.72
2018-09-13T07:50:17.015Z,100811.50
2018-09-13T07:51:23.389Z,100816.84
2018-09-13T07:52:29.856Z,100814.94
2018-09-13T07:53:36.110Z,100813.11
2018-09-13T07:54:42.340Z,100821.92
2018-09-13T07:55:48.440Z,100817.52
2018-09-13T07:56:54.845Z,100818.48
2018-09-13T07:58:00.850Z,100818.95
2018-09-13T07:59:07.089Z,100817.13
2018-09-13T08:00:13.317Z,100818.48
2018-09-13T08:01:19.584Z,100814.47
2018-09-13T08:02:25.876Z,100822.84
2018-09-13T08:03:32.083Z,100828.11
2018-09-13T08:04:38.037Z,100836.38
2018-09-13T08:05:44.292Z,100837.58
2018-09-13T08:06:50.559Z,100831.23
2018-09-13T08:07:56.788Z,100835.06
2018-09-13T08:09:02.776Z,100831.93
2018-09-13T08:10:08.800Z,100833.92
2018-09-13T08:11:15.146Z,100834.24
2018-09-13T08:12:21.369Z,100828.72
2018-09-13T08:13:27.642Z,100823.73
2018-09-13T08:14:33.589Z,100824.28
2018-09-13T08:15:39.561Z,100831.99
2018-09-13T08:16:45.828Z,100834.59
2018-09-13T08:17:52.051Z,100838.38
2018-09-13T08:18:58.314Z,100854.63
2018-09-13T08:20:04.235Z,100856.15
2018-09-13T08:21:10.525Z,100862.84
2018-09-13T08:22:17.349Z,100863.63
2018-09-13T08:23:23.340Z,100864.30
2018-09-13T08:24:29.586Z,100868.21
2018-09-13T08:25:35.848Z,100867.36
2018-09-13T08:26:42.138Z,100868.98
2018-09-13T08:27:48.380Z,100872.19
2018-09-13T08:28:54.603Z,100868.41
2018-09-13T08:30:00.613Z,100867.27
2018-09-13T08:31:06.891Z,100868.63
2018-09-13T08:32:13.164Z,100868.87
2018-09-13T08:33:19.524Z,100864.19
2018-09-13T08:34:25.958Z,100869.62
2018-09-13T08:35:32.209Z,100869.39
2018-09-13T08:36:38.476Z,100873.40
2018-09-13T08:37:44.701Z,100879.53
2018-09-13T08:38:50.936Z,100880.20
2018-09-13T08:39:57.326Z,100878.14
2018-09-13T08:41:03.463Z,100874.11
2018-09-13T08:42:09.118Z,100872.24
2018-09-13T08:43:15.563Z,100868.75
2018-09-13T08:44:21.864Z,100860.01
2018-09-13T08:45:28.156Z,100861.50
2018-09-13T08:46:34.443Z,100868.20
2018-09-13T08:47:40.738Z,100861.98
2018-09-13T08:48:47.188Z,100858.80
2018-09-13T08:49:53.617Z,100862.16
2018-09-13T08:50:59.934Z,100867.95
2018-09-13T08:52:06.270Z,100866.92
2018-09-13T08:53:12.504Z,100869.12
2018-09-13T08:54:18.754Z,100868.38
2018-09-13T08:55:25.018Z,100868.09
2018-09-13T08:56:31.293Z,100868.68
2018-09-13T08:57:38.705Z,100861.16
2018-09-13T08:58:44.949Z,100861.94
2018-09-13T08:59:51.179Z,100867.95
2018-09-13T09:00:57.406Z,100861.30
2018-09-13T09:02:03.688Z,100854.30
2018-09-13T09:03:10.004Z,100853.36
2018-09-13T09:04:16.251Z,100844.14
2018-09-13T09:05:22.519Z,100847.14
2018-09-13T09:06:28.751Z,100844.06
2018-09-13T09:07:34.999Z,100842.78
2018-09-13T09:08:41.273Z,100829.89
2018-09-13T09:09:47.523Z,100831.09
2018-09-13T09:10:53.797Z,100831.64
2018-09-13T09:12:00.108Z,100825.59
2018-09-13T09:13:06.211Z,100825.88
2018-09-13T09:14:12.514Z,100828.33
2018-09-13T09:15:18.759Z,100820.97
2018-09-13T09:16:25.009Z,100823.16
2018-09-13T09:17:31.292Z,100825.80
2018-09-13T09:18:37.606Z,100824.33
2018-09-13T09:19:44.004Z,100820.31
2018-09-13T09:20:50.136Z,100825.54
2018-09-13T09:21:56.398Z,100828.77
2018-09-13T09:23:02.608Z,100831.73
2018-09-13T09:24:08.548Z,100831.73
2018-09-13T09:25:15.003Z,100830.88
2018-09-13T09:26:21.283Z,100830.48
2018-09-13T09:27:27.565Z,100834.86
2018-09-13T09:28:33.896Z,100842.92
2018-09-13T09:29:40.142Z,100844.20
2018-09-13T09:30:46.368Z,100841.25
2018-09-13T09:31:52.605Z,100839.13
2018-09-13T09:32:58.894Z,100847.08
2018-09-13T09:34:05.121Z,100846.14
2018-09-13T09:35:11.378Z,100843.44
2018-09-13T09:36:17.663Z,100849.47
2018-09-13T09:37:23.930Z,100840.95
2018-09-13T09:38:30.154Z,100843.37
2018-09-13T09:39:36.424Z,100847.93
2018-09-13T09:40:42.782Z,100840.16
2018-09-13T09:41:49.193Z,100840.34
2018-09-13T09:42:55.465Z,100835.90
2018-09-13T09:44:01.703Z,100834.57
2018-09-13T09:45:07.977Z,100835.27
2018-09-13T09:46:14.209Z,100831.11
2018-09-13T09:47:20.726Z,100834.23
2018-09-13T09:48:26.969Z,100828.23
2018-09-13T09:49:33.257Z,100838.56
2018-09-13T09:50:39.478Z,100835.56
2018-09-13T09:51:45.720Z,100837.48
2018-09-13T09:52:52.018Z,100841.36
2018-09-13T09:53:58.249Z,100838.01
2018-09-13T09:55:04.117Z,100842.06
2018-09-13T09:56:10.425Z,100839.70
2018-09-13T09:57:16.851Z,100848.68
2018-09-13T09:58:23.164Z,100852.27
2018-09-13T09:59:29.417Z,100848.52
2018-09-13T10:00:35.472Z,100851.92
2018-09-13T10:01:41.507Z,100840.95
2018-09-13T10:02:52.023Z,100846.72
2018-09-13T10:04:05.932Z,100843.45
2018-09-13T10:05:12.584Z,100837.09
2018-09-13T10:06:19.241Z,100836.45
2018-09-13T10:07:25.624Z,100833.26
2018-09-13T10:08:31.877Z,100829.75
2018-09-13T10:09:38.142Z,100829.05
2018-09-13T10:10:47.544Z,100829.00
2018-09-13T10:11:53.964Z,100828.20
2018-09-13T10:13:00.429Z,100830.20
2018-09-13T10:14:06.597Z,100824.60
2018-09-13T10:15:13.209Z,100829.75
2018-09-13T10:16:24.708Z,100831.12
2018-09-13T10:17:36.331Z,100827.07
2018-09-13T10:18:42.349Z,100826.25
2018-09-13T10:19:49.228Z,100820.17
2018-09-13T10:22:44.689Z,100824.60
2018-09-13T10:24:11.672Z,100819.92
2018-09-13T10:27:11.598Z,100822.93
2018-09-13T10:28:48.791Z,100819.98
2018-09-13T10:30:29.164Z,100828.37
2018-09-13T10:32:06.125Z,100831.33
2018-09-13T10:33:47.511Z,100832.00
2018-09-13T10:35:24.488Z,100830.94
2018-09-13T10:37:01.605Z,100833.76
2018-09-13T10:38:42.573Z,100837.89
2018-09-13T10:40:19.626Z,100845.41
2018-09-13T10:42:01.954Z,100840.28
2018-09-13T10:43:43.080Z,100832.58
2018-09-13T10:45:26.955Z,100818.22
2018-09-13T10:46:33.515Z,100820.17
2018-09-13T10:47:42.165Z,100819.03
2018-09-13T10:48:46.661Z,100825.89
2018-09-13T10:51:32.077Z,100834.80
2018-09-13T10:52:38.173Z,100837.19
2018-09-13T10:53:43.356Z,100833.80
2018-09-13T10:54:50.866Z,100837.20
2018-09-13T10:55:56.890Z,100838.14
2018-09-13T10:57:02.800Z,100832.91
2018-09-13T10:58:08.772Z,100830.62
2018-09-13T10:59:16.463Z,100823.47
2018-09-13T11:00:23.241Z,100821.13
2018-09-13T11:01:30.173Z,100821.72
2018-09-13T11:02:36.152Z,100812.44
2018-09-13T11:03:43.953Z,100814.30
2018-09-13T11:04:49.684Z,100812.66
2018-09-13T11:05:55.561Z,100813.28
2018-09-13T11:07:01.472Z,100814.67
2018-09-13T11:08:07.017Z,100815.36
2018-09-13T11:09:12.409Z,100822.87
2018-09-13T11:10:20.338Z,100821.70
2018-09-13T11:11:26.786Z,100816.23
2018-09-13T11:12:33.011Z,100817.21
2018-09-13T11:13:38.790Z,100811.86
2018-09-13T11:14:44.903Z,100814.75
2018-09-13T11:15:50.561Z,100816.03
2018-09-13T11:18:08.259Z,100826.12
2018-09-13T11:19:15.457Z,100820.73
2018-09-13T11:20:21.511Z,100829.35
2018-09-13T11:21:31.645Z,100827.98
2018-09-13T11:22:37.770Z,100826.45
2018-09-13T11:23:43.845Z,100830.55
2018-09-13T11:24:49.740Z,100830.84
2018-09-13T11:25:55.718Z,100831.85
2018-09-13T11:27:02.013Z,100822.91
2018-09-13T11:28:08.953Z,100822.70
2018-09-13T11:29:15.737Z,100830.56
2018-09-13T11:30:24.097Z,100830.37
2018-09-13T11:31:31.269Z,100833.77
2018-09-13T11:32:40.744Z,100826.28
2018-09-13T11:33:47.411Z,100823.48
2018-09-13T11:34:53.376Z,100824.19
2018-09-13T11:36:00.290Z,100825.98
2018-09-13T11:37:07.048Z,100830.77
2018-09-13T11:38:13.012Z,100837.89
2018-09-13T11:39:19.017Z,100828.16
2018-09-13T11:40:25.378Z,100832.45
2018-09-13T11:41:32.256Z,100837.23
2018-09-13T11:42:38.731Z,100831.72
2018-09-13T11:43:44.000Z,100833.36
2018-09-13T11:44:58.467Z,100837.67
2018-09-13T11:46:05.231Z,100837.43
2018-09-13T11:47:11.752Z,100845.77
2018-09-13T11:48:18.968Z,100840.28
2018-09-13T11:49:27.696Z,100842.50
2018-09-13T11:50:34.281Z,100841.20
2018-09-13T11:51:45.384Z,100833.53
2018-09-13T11:52:51.669Z,100830.18
2018-09-13T11:53:57.999Z,100828.10
2018-09-13T11:55:04.104Z,100823.59
2018-09-13T11:56:10.157Z,100825.10
2018-09-13T11:57:19.808Z,100821.71
2018-09-13T11:58:25.781Z,100822.39
2018-09-13T11:59:32.081Z,100825.25
2018-09-13T12:00:39.465Z,100823.42
2018-09-13T12:01:45.463Z,100820.21
2018-09-13T12:02:51.728Z,100824.15
2018-09-13T12:03:58.080Z,100822.20
2018-09-13T12:05:03.756Z,100821.39
2018-09-13T12:06:10.151Z,100817.56
2018-09-13T12:07:16.400Z,100807.65
2018-09-13T12:08:22.409Z,100804.57
2018-09-13T12:09:28.756Z,100801.86
2018-09-13T12:10:35.721Z,100800.16
2018-09-13T12:11:45.110Z,100803.88
2018-09-13T12:12:56.419Z,100804.34
2018-09-13T12:14:04.833Z,100809.39
2018-09-13T12:15:11.060Z,100801.15
2018-09-13T12:16:17.197Z,100793.73
2018-09-13T12:17:24.072Z,100799.73
2018-09-13T12:18:30.743Z,100793.91
2018-09-13T12:19:43.400Z,100800.78
2018-09-13T12:20:55.173Z,100802.98
2018-09-13T12:22:01.535Z,100814.18
2018-09-13T12:23:07.789Z,100827.72
2018-09-13T12:24:14.762Z,100835.09
2018-09-13T12:25:21.755Z,100842.02
2018-09-13T12:27:44.775Z,100840.39
2018-09-13T12:28:51.057Z,100832.05
2018-09-13T12:29:58.264Z,100832.87
2018-09-13T12:31:04.561Z,100834.46
2018-09-13T12:32:11.049Z,100835.52
2018-09-13T12:33:16.970Z,100834.30
2018-09-13T12:34:23.317Z,100838.59
2018-09-13T12:35:31.435Z,100835.52
2018-09-13T12:37:48.983Z,100833.84
2018-09-13T12:38:55.238Z,100832.00
2018-09-13T12:40:01.511Z,100832.90
2018-09-13T12:41:08.251Z,100831.38
2018-09-13T12:42:17.130Z,100826.22
2018-09-13T12:43:24.855Z,100825.80
2018-09-13T12:44:32.017Z,100826.54
2018-09-13T12:45:37.764Z,100826.54
2018-09-13T12:46:44.945Z,100822.09
2018-09-13T12:47:52.223Z,100820.69
2018-09-13T12:49:03.650Z,100825.41
2018-09-13T12:50:08.963Z,100825.92
2018-09-13T12:51:15.051Z,100826.34
2018-09-13T12:52:21.944Z,100822.09
2018-09-13T12:53:28.229Z,100818.40
2018-09-13T12:54:33.905Z,100815.24